Time;durP1;ratioP1;P1;durP2;ratioP2;P2;SDS_P1;SDS_P2;PMS_P1;PMS_P2;Temp;Humidity;BMP_temperature;BMP_pressure;BME280_temperature;BME280_humidity;BME280_pressure;Samples;Min_cycle;Max_cycle;Signal;HPM_P1;HPM_P2
2022/02/16 00:00:36;;;;;;;0.88;0.60;;;2.90;92.10;;;;;;2073481;28;20187;-71
2022/02/16 00:01:37;;;;;;;1.57;0.60;;;2.90;92.60;;;;;;2081770;28;20233;-71
2022/02/16 00:02:38;;;;;;;1.33;0.67;;;2.90;92.40;;;;;;2081689;28;20518;-71
2022/02/16 00:03:39;;;;;;;2.42;1.00;;;2.90;92.60;;;;;;2081128;28;20179;-70
2022/02/16 00:04:40;;;;;;;1.90;0.60;;;3.00;92.30;;;;;;2081106;28;20193;-72
2022/02/16 00:05:41;;;;;;;1.25;0.65;;;2.90;92.30;;;;;;2081778;28;20221;-71
2022/02/16 00:06:41;;;;;;;1.37;0.67;;;2.90;93.10;;;;;;2072864;28;20550;-71
2022/02/16 00:07:43;;;;;;;2.17;0.70;;;2.90;92.60;;;;;;2072900;28;20842;-71
2022/02/16 00:08:44;;;;;;;2.08;0.70;;;2.80;93.00;;;;;;2081067;28;20174;-72
2022/02/16 00:09:44;;;;;;;2.50;0.60;;;2.90;93.30;;;;;;2081048;28;20612;-71
2022/02/16 00:10:45;;;;;;;1.17;0.60;;;2.90;93.00;;;;;;2072827;28;20192;-70
2022/02/16 00:11:46;;;;;;;2.70;0.80;;;2.80;93.20;;;;;;2072968;28;20198;-71
2022/02/16 00:12:47;;;;;;;1.77;0.70;;;2.70;93.30;;;;;;2080911;28;20196;-72
2022/02/16 00:13:48;;;;;;;1.85;0.60;;;2.70;93.80;;;;;;2089287;28;20717;-71
2022/02/16 00:14:48;;;;;;;2.13;0.60;;;2.80;93.50;;;;;;2080928;28;20220;-71
2022/02/16 00:15:49;;;;;;;2.73;0.63;;;2.90;93.40;;;;;;2080994;28;20188;-71
2022/02/16 00:16:50;;;;;;;1.17;0.60;;;2.90;93.10;;;;;;2089273;28;20186;-71
2022/02/16 00:17:52;;;;;;;8.53;1.33;;;2.90;93.00;;;;;;2089286;28;20187;-71
2022/02/16 00:18:52;;;;;;;2.85;0.70;;;2.90;93.00;;;;;;2081039;28;20192;-71
2022/02/16 00:19:53;;;;;;;1.80;0.87;;;2.80;93.20;;;;;;2081145;28;20223;-71
2022/02/16 00:20:54;;;;;;;0.60;0.60;;;2.80;93.60;;;;;;2089213;28;20182;-71
2022/02/16 00:21:54;;;;;;;2.17;0.60;;;2.80;93.80;;;;;;2081083;28;21009;-72
2022/02/16 00:22:55;;;;;;;1.97;0.90;;;2.80;94.00;;;;;;2072714;28;20187;-71
2022/02/16 00:23:55;;;;;;;4.47;0.97;;;2.80;93.80;;;;;;2081004;28;20188;-70
2022/02/16 00:24:56;;;;;;;2.33;0.80;;;2.80;94.00;;;;;;2081654;28;20190;-71
2022/02/16 00:25:59;;;;;;;2.90;0.63;;;2.90;93.70;;;;;;2081009;28;20668;-71
2022/02/16 00:27:00;;;;;;;0.95;0.57;;;2.90;93.70;;;;;;2064849;28;20616;-71
2022/02/16 00:28:01;;;;;;;0.80;0.53;;;2.80;94.00;;;;;;2073062;28;20219;-72
2022/02/16 00:29:02;;;;;;;1.20;0.60;;;2.80;94.50;;;;;;2089353;28;20291;-72
2022/02/16 00:30:05;;;;;;;1.52;0.60;;;2.80;95.00;;;;;;2080889;28;20177;-71
2022/02/16 00:31:06;;;;;;;1.05;0.70;;;2.80;95.20;;;;;;2080599;28;20197;-71
2022/02/16 00:32:09;;;;;;;1.57;0.83;;;2.80;95.40;;;;;;2080963;28;20186;-71
2022/02/16 00:33:10;;;;;;;3.10;0.60;;;2.70;95.60;;;;;;2080645;28;20766;-72
2022/02/16 00:34:10;;;;;;;0.93;0.57;;;2.80;95.40;;;;;;2080913;28;20227;-71
2022/02/16 00:35:11;;;;;;;1.03;0.70;;;2.70;95.40;;;;;;2081401;28;20342;-71
2022/02/16 00:36:12;;;;;;;2.47;0.90;;;2.70;95.90;;;;;;2081470;28;20186;-71
2022/02/16 00:37:13;;;;;;;1.53;0.60;;;2.60;96.20;;;;;;2081553;28;20193;-71
2022/02/16 00:38:14;;;;;;;2.40;1.07;;;2.60;96.20;;;;;;2081543;28;20181;-71
2022/02/16 00:39:14;;;;;;;1.85;0.60;;;2.70;96.10;;;;;;2080056;28;20245;-71
2022/02/16 00:40:16;;;;;;;0.93;0.60;;;2.70;96.20;;;;;;2080707;28;20271;-71
2022/02/16 00:41:16;;;;;;;0.80;0.60;;;2.70;96.30;;;;;;2080962;28;20198;-71
2022/02/16 00:42:17;;;;;;;3.53;0.77;;;2.70;95.90;;;;;;2080809;28;20676;-71
2022/02/16 00:43:17;;;;;;;2.17;0.80;;;2.70;96.10;;;;;;2080700;28;20587;-73
2022/02/16 00:44:18;;;;;;;3.03;0.77;;;2.70;96.50;;;;;;2081577;28;20200;-71
2022/02/16 00:45:19;;;;;;;1.03;0.60;;;2.70;96.80;;;;;;2080937;28;20185;-71
2022/02/16 00:46:19;;;;;;;3.07;0.80;;;2.70;96.80;;;;;;2080966;28;20192;-72
2022/02/16 00:47:20;;;;;;;2.80;0.80;;;2.70;96.90;;;;;;2080712;28;20245;-72
2022/02/16 00:48:21;;;;;;;2.20;1.23;;;2.70;96.70;;;;;;2064407;28;20605;-73
2022/02/16 00:49:21;;;;;;;3.40;0.67;;;2.70;97.00;;;;;;2064608;28;20183;-71
2022/02/16 00:50:22;;;;;;;1.63;1.13;;;2.70;97.30;;;;;;2080954;28;20191;-71
2022/02/16 00:51:23;;;;;;;2.27;1.13;;;2.70;97.50;;;;;;2080883;28;20176;-71
2022/02/16 00:52:23;;;;;;;2.67;0.80;;;2.70;97.80;;;;;;2072643;28;20194;-72
2022/02/16 00:53:24;;;;;;;4.90;1.13;;;2.70;98.00;;;;;;2072378;28;20213;-71
2022/02/16 00:54:25;;;;;;;1.83;1.10;;;2.70;97.70;;;;;;2072644;28;20837;-71
2022/02/16 00:55:26;;;;;;;1.50;0.80;;;2.70;97.80;;;;;;2072629;28;20211;-71
2022/02/16 00:56:26;;;;;;;2.17;0.50;;;2.70;98.20;;;;;;2072540;28;20178;-71
2022/02/16 00:57:27;;;;;;;3.43;0.80;;;2.60;98.50;;;;;;2072717;28;20215;-71
2022/02/16 00:58:28;;;;;;;1.30;0.50;;;2.60;98.70;;;;;;2072646;28;20784;-71
2022/02/16 00:59:29;;;;;;;1.43;0.60;;;2.60;99.20;;;;;;2072577;28;20188;-71
2022/02/16 01:00:30;;;;;;;2.15;0.70;;;2.60;99.10;;;;;;2072709;28;20660;-71
2022/02/16 01:01:30;;;;;;;1.23;0.60;;;2.70;98.70;;;;;;2072488;28;20194;-71
2022/02/16 01:02:31;;;;;;;3.90;0.80;;;2.80;98.50;;;;;;2080910;28;20189;-72
2022/02/16 01:03:32;;;;;;;3.67;1.10;;;2.80;98.30;;;;;;2088464;28;20673;-71
2022/02/16 01:04:32;;;;;;;0.77;0.57;;;2.80;98.30;;;;;;2080852;28;20187;-71
2022/02/16 01:05:33;;;;;;;2.10;0.90;;;2.80;98.50;;;;;;2072833;28;20207;-71
2022/02/16 01:06:34;;;;;;;2.73;1.10;;;2.80;98.70;;;;;;2080915;28;20178;-71
2022/02/16 01:07:35;;;;;;;1.60;1.00;;;2.80;98.80;;;;;;2081490;28;20214;-72
2022/02/16 01:08:35;;;;;;;3.80;0.93;;;2.80;99.10;;;;;;2081328;28;20270;-70
2022/02/16 01:09:36;;;;;;;1.47;0.70;;;2.80;99.30;;;;;;2081234;28;20190;-71
2022/02/16 01:10:39;;;;;;;3.07;0.80;;;2.80;99.20;;;;;;2072419;28;20186;-72
2022/02/16 01:11:40;;;;;;;4.15;1.38;;;2.80;99.20;;;;;;2065053;28;20952;-71
2022/02/16 01:12:41;;;;;;;1.27;0.70;;;2.80;99.20;;;;;;2080698;28;20195;-71
2022/02/16 01:13:42;;;;;;;2.87;0.80;;;2.80;99.60;;;;;;2081070;28;20649;-71
2022/02/16 01:14:42;;;;;;;2.47;0.80;;;2.80;99.90;;;;;;2080479;28;20181;-72
2022/02/16 01:15:43;;;;;;;1.23;0.90;;;2.70;99.90;;;;;;2080714;28;20265;-70
2022/02/16 01:16:44;;;;;;;0.97;0.60;;;2.70;99.90;;;;;;2081267;28;20667;-71
2022/02/16 01:17:45;;;;;;;1.50;0.88;;;2.80;99.90;;;;;;2080585;28;20644;-73
2022/02/16 01:18:45;;;;;;;1.53;0.83;;;2.80;99.90;;;;;;2072402;28;20190;-72
2022/02/16 01:19:46;;;;;;;3.27;0.80;;;2.80;99.90;;;;;;2064181;28;20195;-71
2022/02/16 01:20:47;;;;;;;1.40;0.90;;;2.70;99.90;;;;;;2080621;28;20663;-71
2022/02/16 01:21:47;;;;;;;3.53;1.17;;;2.80;99.90;;;;;;2080565;28;20569;-72
2022/02/16 01:22:48;;;;;;;1.07;0.67;;;2.70;99.90;;;;;;2080302;28;20275;-71
2022/02/16 01:23:49;;;;;;;2.13;0.73;;;2.80;99.90;;;;;;2072207;28;20214;-72
2022/02/16 01:24:50;;;;;;;1.43;0.80;;;2.70;99.90;;;;;;2072358;28;20422;-72
2022/02/16 01:25:51;;;;;;;1.10;0.95;;;2.70;99.90;;;;;;2072328;28;20183;-72
2022/02/16 01:26:51;;;;;;;0.57;0.53;;;2.80;99.90;;;;;;2072430;28;20305;-72
2022/02/16 01:27:52;;;;;;;1.47;0.80;;;2.70;99.90;;;;;;2080744;28;20276;-71
2022/02/16 01:28:53;;;;;;;2.80;1.17;;;2.70;99.90;;;;;;2081111;28;20194;-71
2022/02/16 01:29:53;;;;;;;0.73;0.67;;;2.70;99.90;;;;;;2080530;28;20194;-72
2022/02/16 01:30:54;;;;;;;2.57;1.10;;;2.70;99.90;;;;;;2072213;28;20279;-71
2022/02/16 01:31:55;;;;;;;2.00;1.00;;;2.70;99.90;;;;;;2080510;28;20254;-73
2022/02/16 01:32:56;;;;;;;3.37;0.90;;;2.70;99.90;;;;;;2080775;28;20236;-72
2022/02/16 01:33:56;;;;;;;2.33;1.10;;;2.60;99.90;;;;;;2080395;28;20185;-72
2022/02/16 01:34:57;;;;;;;1.00;0.70;;;2.70;99.90;;;;;;2080489;28;20213;-72
2022/02/16 01:35:58;;;;;;;2.60;0.90;;;2.70;99.90;;;;;;2080410;28;20196;-72
2022/02/16 01:36:58;;;;;;;3.07;0.70;;;2.70;99.90;;;;;;2080507;28;20583;-71
2022/02/16 01:37:59;;;;;;;2.07;1.40;;;2.70;99.90;;;;;;2081117;28;20185;-72
2022/02/16 01:38:59;;;;;;;1.73;0.90;;;2.70;99.90;;;;;;2081016;28;20184;-72
2022/02/16 01:40:00;;;;;;;2.63;0.90;;;2.70;99.90;;;;;;2081215;28;20706;-70
2022/02/16 01:41:03;;;;;;;2.27;0.77;;;2.70;99.90;;;;;;2081031;28;20665;-72
2022/02/16 01:42:04;;;;;;;1.40;0.70;;;2.70;99.90;;;;;;2072246;28;20672;-72
2022/02/16 01:43:05;;;;;;;1.10;0.90;;;2.70;99.90;;;;;;2072063;28;20203;-69
2022/02/16 01:44:06;;;;;;;2.10;0.77;;;2.80;99.90;;;;;;2080345;28;20699;-71
2022/02/16 01:45:09;;;;;;;3.00;1.43;;;2.80;99.90;;;;;;2072354;28;20267;-71
2022/02/16 01:46:09;;;;;;;3.42;1.23;;;2.80;99.90;;;;;;2072583;28;20212;-71
2022/02/16 01:47:10;;;;;;;1.30;1.03;;;2.70;99.90;;;;;;2080407;28;20234;-73
2022/02/16 01:48:11;;;;;;;2.17;0.80;;;2.70;99.90;;;;;;2081189;28;20188;-72
2022/02/16 01:49:11;;;;;;;1.17;0.80;;;2.60;99.90;;;;;;2080277;28;20187;-72
2022/02/16 01:50:12;;;;;;;2.30;0.77;;;2.60;99.90;;;;;;2079849;28;20182;-72
2022/02/16 01:51:13;;;;;;;1.10;0.60;;;2.60;99.90;;;;;;2080146;28;20365;-70
2022/02/16 01:52:14;;;;;;;1.33;0.77;;;2.70;99.90;;;;;;2072356;28;20219;-71
2022/02/16 01:53:15;;;;;;;2.45;0.77;;;2.70;99.90;;;;;;2072026;28;20201;-71
2022/02/16 01:54:16;;;;;;;3.03;0.70;;;2.70;99.90;;;;;;2072919;28;20290;-72
2022/02/16 01:55:17;;;;;;;0.70;0.50;;;2.70;99.90;;;;;;2073811;28;20229;-73
2022/02/16 01:56:20;;;;;;;2.03;0.70;;;2.70;99.90;;;;;;2078618;28;20698;-71
2022/02/16 01:57:20;;;;;;;1.70;1.05;;;2.80;99.90;;;;;;2080329;28;20236;-72
2022/02/16 01:58:21;;;;;;;0.90;0.50;;;2.80;99.90;;;;;;2064090;28;20251;-71
2022/02/16 01:59:24;;;;;;;3.53;0.70;;;2.80;99.90;;;;;;2072238;28;20223;-71
2022/02/16 02:00:25;;;;;;;0.95;0.65;;;2.80;99.90;;;;;;2088415;28;20188;-70
2022/02/16 02:01:26;;;;;;;2.13;0.80;;;2.80;99.90;;;;;;2080416;28;20265;-71
2022/02/16 02:02:28;;;;;;;3.53;0.97;;;2.80;99.90;;;;;;2080592;28;20179;-71
2022/02/16 02:03:29;;;;;;;0.73;0.60;;;2.80;99.90;;;;;;2080005;28;20248;-71
2022/02/16 02:04:29;;;;;;;2.70;0.87;;;2.80;99.90;;;;;;2081145;28;20328;-71
2022/02/16 02:05:30;;;;;;;3.03;0.70;;;2.70;99.90;;;;;;2072150;28;20460;-72
2022/02/16 02:06:30;;;;;;;1.20;0.70;;;2.70;99.90;;;;;;2064126;28;20276;-71
2022/02/16 02:07:35;;;;;;;1.07;0.60;;;2.70;99.90;;;;;;2072271;28;20682;-71
2022/02/16 02:08:36;;;;;;;0.95;0.70;;;2.70;99.90;;;;;;2080545;28;20169;-71
2022/02/16 02:09:37;;;;;;;2.63;0.60;;;2.60;99.90;;;;;;2072346;28;20193;-71
2022/02/16 02:10:37;;;;;;;2.87;0.63;;;2.60;99.90;;;;;;2072422;28;20238;-70
2022/02/16 02:11:39;;;;;;;1.13;0.60;;;2.50;99.90;;;;;;2072251;28;20183;-71
2022/02/16 02:12:46;;;;;;;1.13;0.57;;;2.50;99.90;;;;;;2072465;28;20610;-71
2022/02/16 02:13:57;;;;;;;1.35;0.60;;;2.60;99.90;;;;;;2064682;28;20192;-71
2022/02/16 02:14:58;;;;;;;0.82;0.63;;;2.80;99.90;;;;;;2066815;28;20223;-70
2022/02/16 02:15:58;;;;;;;0.73;0.60;;;2.70;99.90;;;;;;2080376;28;20555;-72
2022/02/16 02:16:59;;;;;;;2.53;0.60;;;2.70;99.90;;;;;;2081127;28;20173;-71
2022/02/16 02:18:00;;;;;;;0.50;0.50;;;2.60;99.90;;;;;;2081142;28;20188;-71
2022/02/16 02:19:00;;;;;;;1.87;1.00;;;2.60;99.90;;;;;;2080970;28;20237;-71
2022/02/16 02:20:02;;;;;;;1.30;0.53;;;2.60;99.90;;;;;;2080295;28;20257;-71
2022/02/16 02:21:02;;;;;;;0.63;0.50;;;2.60;99.90;;;;;;2080514;28;20183;-70
2022/02/16 02:22:03;;;;;;;2.10;0.60;;;2.60;99.90;;;;;;2080307;28;20183;-70
2022/02/16 02:23:04;;;;;;;1.80;0.70;;;2.70;99.90;;;;;;2072151;28;20563;-70
2022/02/16 02:24:05;;;;;;;1.00;0.80;;;2.80;99.90;;;;;;2072336;28;20187;-71
2022/02/16 02:25:06;;;;;;;1.02;0.50;;;2.60;99.90;;;;;;2080319;28;20177;-72
2022/02/16 02:26:07;;;;;;;1.65;0.90;;;2.70;99.90;;;;;;2080168;28;20247;-71
2022/02/16 02:27:07;;;;;;;2.27;0.40;;;2.70;99.90;;;;;;2072127;28;20285;-71
2022/02/16 02:28:09;;;;;;;0.87;0.50;;;2.80;99.90;;;;;;2072036;28;20279;-71
2022/02/16 02:29:10;;;;;;;1.55;0.52;;;2.80;99.90;;;;;;2080308;28;20244;-71
2022/02/16 02:30:12;;;;;;;2.03;0.50;;;2.80;99.90;;;;;;2063903;28;20194;-70
2022/02/16 02:31:13;;;;;;;0.50;0.50;;;2.80;99.90;;;;;;2056194;28;20212;-70
2022/02/16 02:32:17;;;;;;;0.73;0.43;;;2.90;99.90;;;;;;2064207;28;20200;-70
2022/02/16 02:33:18;;;;;;;0.88;0.85;;;2.90;99.90;;;;;;2072045;28;20768;-71
2022/02/16 02:34:19;;;;;;;0.57;0.50;;;3.00;99.90;;;;;;2080132;28;20207;-71
2022/02/16 02:35:20;;;;;;;0.40;0.40;;;3.00;99.90;;;;;;2088324;28;20202;-73
2022/02/16 02:36:20;;;;;;;0.40;0.40;;;3.00;99.90;;;;;;2080307;28;20237;-69
2022/02/16 02:37:21;;;;;;;1.20;0.40;;;3.00;99.90;;;;;;2072087;28;20215;-71
2022/02/16 02:38:22;;;;;;;0.70;0.30;;;3.00;99.90;;;;;;2072127;28;20176;-71
2022/02/16 02:39:22;;;;;;;0.53;0.40;;;3.00;99.90;;;;;;2072064;28;20183;-69
2022/02/16 02:40:23;;;;;;;0.37;0.30;;;3.00;99.90;;;;;;2080286;28;20683;-71
2022/02/16 02:41:24;;;;;;;0.93;0.43;;;3.10;99.90;;;;;;2080185;28;20180;-71
2022/02/16 02:42:25;;;;;;;0.30;0.30;;;3.20;99.90;;;;;;2072092;28;20200;-71
2022/02/16 02:43:26;;;;;;;0.43;0.33;;;3.20;99.90;;;;;;2080140;28;20202;-71
2022/02/16 02:44:27;;;;;;;0.30;0.30;;;3.20;99.90;;;;;;2080359;28;20579;-71
2022/02/16 02:45:28;;;;;;;0.63;0.40;;;3.20;99.90;;;;;;2080134;28;20194;-71
2022/02/16 02:46:28;;;;;;;0.30;0.30;;;3.20;99.90;;;;;;2080131;28;20195;-70
2022/02/16 02:47:29;;;;;;;0.70;0.47;;;3.10;99.90;;;;;;2071977;28;20179;-70
2022/02/16 02:48:30;;;;;;;0.40;0.40;;;3.10;99.90;;;;;;2080273;28;20179;-71
2022/02/16 02:49:31;;;;;;;0.50;0.43;;;3.00;99.90;;;;;;2080154;28;20189;-71
2022/02/16 02:50:31;;;;;;;1.47;0.67;;;3.10;99.90;;;;;;2080297;28;20644;-71
2022/02/16 02:51:32;;;;;;;0.43;0.40;;;3.10;99.90;;;;;;2080716;28;20210;-71
2022/02/16 02:52:36;;;;;;;0.30;0.30;;;3.10;99.90;;;;;;2080214;28;20178;-71
2022/02/16 02:53:39;;;;;;;0.40;0.40;;;3.10;99.90;;;;;;2071615;28;20706;-71
2022/02/16 02:54:39;;;;;;;2.25;0.40;;;3.20;99.90;;;;;;2072760;28;20211;-70
2022/02/16 02:55:40;;;;;;;1.07;0.60;;;3.20;99.90;;;;;;2088368;28;20171;-71
2022/02/16 02:56:40;;;;;;;0.40;0.40;;;3.20;99.90;;;;;;2088318;28;20175;-70
2022/02/16 02:57:42;;;;;;;0.73;0.47;;;3.20;99.90;;;;;;2088298;28;20171;-70
2022/02/16 02:58:42;;;;;;;0.30;0.30;;;3.10;99.90;;;;;;2080076;28;20226;-71
2022/02/16 02:59:43;;;;;;;0.50;0.40;;;3.10;99.90;;;;;;2071814;28;20190;-70
2022/02/16 03:00:44;;;;;;;0.67;0.40;;;3.20;99.90;;;;;;2072030;28;20207;-71
2022/02/16 03:01:44;;;;;;;0.40;0.40;;;3.20;99.90;;;;;;2080190;28;20201;-70
2022/02/16 03:02:45;;;;;;;0.40;0.40;;;3.20;99.90;;;;;;2072061;28;20203;-71
2022/02/16 03:03:46;;;;;;;0.40;0.40;;;3.10;99.90;;;;;;2081437;28;20652;-70
2022/02/16 03:04:46;;;;;;;0.30;0.30;;;3.20;99.90;;;;;;2089986;28;20554;-70
2022/02/16 03:05:47;;;;;;;0.37;0.37;;;3.20;99.90;;;;;;2081687;28;20190;-71
2022/02/16 03:06:48;;;;;;;0.40;0.40;;;3.30;99.90;;;;;;2073482;28;20185;-70
2022/02/16 03:07:50;;;;;;;0.50;0.40;;;3.30;99.90;;;;;;2081590;28;20182;-71
2022/02/16 03:08:51;;;;;;;0.40;0.40;;;3.40;99.90;;;;;;2081654;28;20223;-71
2022/02/16 03:09:51;;;;;;;0.53;0.30;;;3.40;99.90;;;;;;2081736;28;20192;-70
2022/02/16 03:10:52;;;;;;;0.30;0.30;;;3.40;99.90;;;;;;2082324;28;20179;-70
2022/02/16 03:11:53;;;;;;;1.13;0.40;;;3.30;99.90;;;;;;2081713;28;20174;-70
2022/02/16 03:12:53;;;;;;;0.90;0.40;;;3.30;99.90;;;;;;2081420;28;20810;-70
2022/02/16 03:13:54;;;;;;;0.40;0.40;;;3.40;99.90;;;;;;2081563;28;20192;-70
2022/02/16 03:14:55;;;;;;;0.30;0.30;;;3.40;99.90;;;;;;2082083;28;20186;-71
2022/02/16 03:15:56;;;;;;;1.33;0.40;;;3.30;99.90;;;;;;2081689;28;20339;-69
2022/02/16 03:16:56;;;;;;;0.40;0.40;;;3.30;99.90;;;;;;2081567;28;20183;-71
2022/02/16 03:17:57;;;;;;;0.20;0.20;;;3.20;99.90;;;;;;2073391;28;20192;-71
2022/02/16 03:18:57;;;;;;;0.40;0.40;;;3.20;99.90;;;;;;2073236;28;20187;-71
2022/02/16 03:19:58;;;;;;;0.57;0.30;;;3.30;99.90;;;;;;2073384;28;20188;-70
2022/02/16 03:20:59;;;;;;;0.40;0.40;;;3.30;99.90;;;;;;2081582;28;20356;-71
2022/02/16 03:21:59;;;;;;;0.40;0.40;;;3.20;99.90;;;;;;2081561;28;20268;-70
2022/02/16 03:23:00;;;;;;;0.40;0.40;;;3.20;99.90;;;;;;2081250;28;20198;-70
2022/02/16 03:24:01;;;;;;;1.07;0.50;;;3.10;99.90;;;;;;2081419;28;20278;-71
2022/02/16 03:25:01;;;;;;;1.17;0.40;;;3.20;99.90;;;;;;2081490;28;20555;-70
2022/02/16 03:26:02;;;;;;;2.40;0.80;;;3.10;99.90;;;;;;2081483;28;20560;-69
2022/02/16 03:27:04;;;;;;;0.45;0.45;;;3.10;99.90;;;;;;2073191;28;20728;-70
2022/02/16 03:28:05;;;;;;;0.40;0.40;;;3.20;99.90;;;;;;2073480;28;20188;-70
2022/02/16 03:29:05;;;;;;;0.33;0.33;;;3.30;99.90;;;;;;2081529;28;20990;-73
2022/02/16 03:30:10;;;;;;;0.40;0.40;;;3.20;99.90;;;;;;2081454;28;20826;-71
2022/02/16 03:31:11;;;;;;;0.40;0.35;;;3.30;99.90;;;;;;2081628;28;20559;-70
2022/02/16 03:32:12;;;;;;;1.27;0.60;;;3.30;99.90;;;;;;2081551;28;20245;-71
2022/02/16 03:33:12;;;;;;;0.40;0.40;;;3.20;99.90;;;;;;2081649;28;20203;-70
2022/02/16 03:34:13;;;;;;;0.23;0.20;;;3.10;99.90;;;;;;2082069;28;20677;-71
2022/02/16 03:35:14;;;;;;;0.40;0.40;;;3.10;99.90;;;;;;2081265;28;20245;-70
2022/02/16 03:36:15;;;;;;;0.40;0.40;;;3.20;99.90;;;;;;2079863;28;20238;-70
2022/02/16 03:37:16;;;;;;;0.30;0.30;;;3.20;99.90;;;;;;2081885;28;20661;-70
2022/02/16 03:38:16;;;;;;;1.10;0.20;;;3.20;99.90;;;;;;2081577;28;20216;-68
2022/02/16 03:39:17;;;;;;;2.20;0.50;;;3.20;99.90;;;;;;2073225;28;20194;-70
2022/02/16 03:40:18;;;;;;;0.73;0.43;;;3.30;99.90;;;;;;2081352;28;20208;-70
2022/02/16 03:41:18;;;;;;;0.57;0.40;;;3.30;99.90;;;;;;2081462;28;20618;-70
2022/02/16 03:42:20;;;;;;;0.23;0.23;;;3.30;99.90;;;;;;2073093;28;20182;-69
2022/02/16 03:43:21;;;;;;;0.55;0.40;;;3.30;99.90;;;;;;2072833;28;20216;-70
2022/02/16 03:44:21;;;;;;;0.82;0.40;;;3.30;99.90;;;;;;2081361;28;20195;-71
2022/02/16 03:45:22;;;;;;;0.70;0.40;;;3.30;99.90;;;;;;2082057;28;20175;-70
2022/02/16 03:46:23;;;;;;;0.60;0.40;;;3.30;99.90;;;;;;2081225;28;20207;-70
2022/02/16 03:47:23;;;;;;;0.60;0.50;;;3.40;99.90;;;;;;2081192;28;21011;-71
2022/02/16 03:48:24;;;;;;;0.30;0.30;;;3.30;99.90;;;;;;2081225;28;20192;-70
2022/02/16 03:49:26;;;;;;;0.20;0.20;;;3.30;99.90;;;;;;2073252;28;20186;-69
2022/02/16 03:50:27;;;;;;;0.60;0.50;;;3.20;99.90;;;;;;2080680;28;20559;-70
2022/02/16 03:51:28;;;;;;;0.30;0.30;;;3.30;99.90;;;;;;2075934;28;20212;-70
2022/02/16 03:52:28;;;;;;;0.73;0.40;;;3.20;99.90;;;;;;2073568;28;20181;-69
2022/02/16 03:53:30;;;;;;;0.30;0.30;;;3.10;99.90;;;;;;2073366;28;20678;-69
2022/02/16 03:54:31;;;;;;;0.50;0.50;;;3.10;99.90;;;;;;2074822;28;20246;-70
2022/02/16 03:55:31;;;;;;;0.30;0.30;;;3.10;99.90;;;;;;2072768;28;20216;-69
2022/02/16 03:56:32;;;;;;;0.30;0.30;;;3.10;99.90;;;;;;2081062;28;20235;-70
2022/02/16 03:57:33;;;;;;;0.90;0.37;;;3.10;99.90;;;;;;2081749;28;20211;-70
2022/02/16 03:58:34;;;;;;;0.30;0.30;;;3.10;99.90;;;;;;2081031;28;20211;-69
2022/02/16 03:59:34;;;;;;;1.53;0.97;;;3.10;99.90;;;;;;2072997;28;20177;-70
2022/02/16 04:00:35;;;;;;;0.63;0.40;;;3.10;99.90;;;;;;2081110;28;20170;-70
2022/02/16 04:01:36;;;;;;;0.50;0.40;;;3.10;99.90;;;;;;2081708;28;20293;-69
2022/02/16 04:02:36;;;;;;;0.60;0.60;;;3.00;99.90;;;;;;2081095;28;20717;-70
2022/02/16 04:03:37;;;;;;;1.30;0.60;;;3.00;99.90;;;;;;2080840;28;20640;-70
2022/02/16 04:04:38;;;;;;;0.90;0.40;;;3.00;99.90;;;;;;2081787;28;20195;-70
2022/02/16 04:05:40;;;;;;;1.67;1.03;;;3.00;99.90;;;;;;2072867;28;20185;-69
2022/02/16 04:06:41;;;;;;;1.30;0.60;;;3.00;99.90;;;;;;2065282;28;20259;-69
2022/02/16 04:07:41;;;;;;;0.80;0.60;;;3.10;99.90;;;;;;2080930;28;20188;-69
2022/02/16 04:08:42;;;;;;;0.93;0.53;;;3.10;99.90;;;;;;2081067;28;20669;-69
2022/02/16 04:09:43;;;;;;;1.53;1.00;;;3.10;99.90;;;;;;2072885;28;20664;-69
2022/02/16 04:10:43;;;;;;;1.13;0.83;;;3.10;99.90;;;;;;2081079;28;20661;-69
2022/02/16 04:11:44;;;;;;;1.63;1.10;;;3.10;99.90;;;;;;2081671;28;20719;-69
2022/02/16 04:12:44;;;;;;;4.07;2.50;;;3.20;99.90;;;;;;2080750;28;20238;-70
2022/02/16 04:13:45;;;;;;;6.63;3.03;;;3.20;99.90;;;;;;2080651;28;20199;-70
2022/02/16 04:14:46;;;;;;;6.33;2.97;;;3.20;99.90;;;;;;2081593;28;20197;-70
2022/02/16 04:15:46;;;;;;;0.57;0.50;;;3.20;99.90;;;;;;2081600;28;20194;-70
2022/02/16 04:16:47;;;;;;;2.73;0.90;;;3.30;99.90;;;;;;2081700;28;20191;-70
2022/02/16 04:17:48;;;;;;;0.70;0.57;;;3.30;99.90;;;;;;2080852;28;20670;-69
2022/02/16 04:18:49;;;;;;;2.07;1.30;;;3.30;99.90;;;;;;2081020;28;20217;-70
2022/02/16 04:19:49;;;;;;;1.30;0.83;;;3.30;99.90;;;;;;2072714;28;20720;-71
2022/02/16 04:20:50;;;;;;;0.57;0.30;;;3.10;99.90;;;;;;2064671;28;20218;-69
2022/02/16 04:21:51;;;;;;;0.20;0.20;;;3.10;99.90;;;;;;2072782;28;20207;-70
2022/02/16 04:22:51;;;;;;;0.87;0.80;;;3.10;99.90;;;;;;2080669;28;20187;-70
2022/02/16 04:23:52;;;;;;;0.97;0.70;;;3.10;99.90;;;;;;2080922;28;20186;-70
2022/02/16 04:24:53;;;;;;;0.40;0.40;;;3.10;99.90;;;;;;2080904;28;20583;-71
2022/02/16 04:25:54;;;;;;;0.60;0.40;;;3.10;99.90;;;;;;2080924;28;20239;-70
2022/02/16 04:26:54;;;;;;;0.30;0.30;;;3.10;99.90;;;;;;2080947;28;20257;-69
2022/02/16 04:27:55;;;;;;;0.70;0.50;;;3.20;99.90;;;;;;2089165;28;20178;-70
2022/02/16 04:28:56;;;;;;;0.57;0.50;;;3.20;99.90;;;;;;2080697;28;20187;-70
2022/02/16 04:29:56;;;;;;;1.10;1.00;;;3.20;99.90;;;;;;2080859;28;20191;-70
2022/02/16 04:30:57;;;;;;;0.60;0.60;;;3.20;99.90;;;;;;2081529;28;20246;-69
2022/02/16 04:31:58;;;;;;;0.20;0.20;;;3.30;99.90;;;;;;2080837;28;20246;-70
2022/02/16 04:32:58;;;;;;;1.47;0.80;;;3.30;99.90;;;;;;2072421;28;20254;-69
2022/02/16 04:33:59;;;;;;;1.30;0.90;;;3.30;99.90;;;;;;2080690;28;20214;-70
2022/02/16 04:35:00;;;;;;;1.20;0.80;;;3.20;99.90;;;;;;2081426;28;20638;-70
2022/02/16 04:36:01;;;;;;;0.40;0.40;;;3.10;99.90;;;;;;2072523;28;20638;-69
2022/02/16 04:37:01;;;;;;;0.40;0.40;;;3.20;99.90;;;;;;2072671;28;20310;-70
2022/02/16 04:38:02;;;;;;;0.50;0.47;;;3.20;99.90;;;;;;2081448;28;20180;-70
2022/02/16 04:39:03;;;;;;;0.40;0.40;;;3.30;99.90;;;;;;2080755;28;20685;-69
2022/02/16 04:40:06;;;;;;;0.93;0.77;;;3.30;99.90;;;;;;2072601;28;20183;-70
2022/02/16 04:41:07;;;;;;;0.82;0.60;;;3.30;99.90;;;;;;2072937;28;20227;-69
2022/02/16 04:42:07;;;;;;;0.30;0.30;;;3.30;99.90;;;;;;2072583;28;20821;-70
2022/02/16 04:43:08;;;;;;;0.80;0.40;;;3.30;99.90;;;;;;2080488;28;20905;-70
2022/02/16 04:44:09;;;;;;;0.70;0.70;;;3.40;99.90;;;;;;2080766;28;20243;-70
2022/02/16 04:45:11;;;;;;;0.60;0.60;;;3.40;99.90;;;;;;2072380;28;20191;-70
2022/02/16 04:46:11;;;;;;;0.30;0.30;;;3.40;99.90;;;;;;2064501;28;20258;-70
2022/02/16 04:47:12;;;;;;;0.50;0.50;;;3.50;99.90;;;;;;2072556;28;20192;-70
2022/02/16 04:48:13;;;;;;;0.40;0.40;;;3.50;99.90;;;;;;2080765;28;20178;-70
2022/02/16 04:49:13;;;;;;;0.20;0.20;;;3.50;99.90;;;;;;2072548;28;20187;-70
2022/02/16 04:50:14;;;;;;;0.40;0.33;;;3.40;99.90;;;;;;2080639;28;20263;-70
2022/02/16 04:51:15;;;;;;;0.30;0.30;;;3.40;99.90;;;;;;2072373;28;20200;-69
2022/02/16 04:52:16;;;;;;;0.30;0.30;;;3.50;99.90;;;;;;2072550;28;20631;-70
2022/02/16 04:53:16;;;;;;;0.20;0.20;;;3.50;99.90;;;;;;2080546;28;20293;-69
2022/02/16 04:54:17;;;;;;;0.50;0.50;;;3.50;99.90;;;;;;2080700;28;20191;-70
2022/02/16 04:55:18;;;;;;;0.30;0.20;;;3.50;99.90;;;;;;2080561;28;20234;-69
2022/02/16 04:56:18;;;;;;;1.33;0.50;;;3.50;99.90;;;;;;2080696;28;20183;-70
2022/02/16 04:57:19;;;;;;;0.40;0.40;;;3.60;99.90;;;;;;2080572;28;20185;-70
2022/02/16 04:58:20;;;;;;;0.30;0.30;;;3.60;99.90;;;;;;2072634;28;20678;-70
2022/02/16 04:59:20;;;;;;;3.00;1.67;;;3.50;99.90;;;;;;2080679;28;20593;-70
2022/02/16 05:00:23;;;;;;;0.33;0.20;;;3.60;99.90;;;;;;2081401;28;20190;-71
2022/02/16 05:01:24;;;;;;;0.30;0.30;;;3.60;99.90;;;;;;2081310;28;20233;-70
2022/02/16 05:02:26;;;;;;;0.40;0.40;;;3.60;99.90;;;;;;2080738;28;20240;-70
2022/02/16 05:03:26;;;;;;;0.95;0.57;;;3.50;99.90;;;;;;2072551;28;20196;-70
2022/02/16 05:04:27;;;;;;;0.80;0.60;;;3.50;99.90;;;;;;2080836;28;20678;-70
2022/02/16 05:05:28;;;;;;;0.30;0.30;;;3.50;99.90;;;;;;2080614;28;20545;-69
2022/02/16 05:06:29;;;;;;;0.10;0.10;;;3.50;99.90;;;;;;2072467;28;20173;-72
2022/02/16 05:07:30;;;;;;;0.20;0.20;;;3.40;99.90;;;;;;2072469;28;20584;-69
2022/02/16 05:08:31;;;;;;;0.93;0.87;;;3.50;99.90;;;;;;2080796;28;20184;-70
2022/02/16 05:09:31;;;;;;;3.47;3.27;;;3.50;99.90;;;;;;2088759;28;20426;-70
2022/02/16 05:10:32;;;;;;;0.50;0.50;;;3.60;99.90;;;;;;2080750;28;20221;-70
2022/02/16 05:11:33;;;;;;;0.47;0.30;;;3.60;99.90;;;;;;2072408;28;20552;-70
2022/02/16 05:12:35;;;;;;;0.90;0.35;;;3.60;99.90;;;;;;2072485;28;20263;-70
2022/02/16 05:13:36;;;;;;;0.30;0.30;;;3.60;99.90;;;;;;2072271;28;20205;-69
2022/02/16 05:14:37;;;;;;;0.10;0.10;;;3.70;99.90;;;;;;2080705;28;20245;-70
2022/02/16 05:15:38;;;;;;;0.30;0.30;;;3.60;99.90;;;;;;2080536;28;20282;-69
2022/02/16 05:16:38;;;;;;;0.60;0.60;;;3.70;99.90;;;;;;2081372;28;20650;-70
2022/02/16 05:17:39;;;;;;;0.93;0.33;;;3.60;99.90;;;;;;2080690;28;20196;-70
2022/02/16 05:18:40;;;;;;;0.40;0.40;;;3.60;99.90;;;;;;2072557;28;20179;-69
2022/02/16 05:19:42;;;;;;;0.50;0.50;;;3.60;99.90;;;;;;2064281;28;20170;-68
2022/02/16 05:20:43;;;;;;;0.30;0.30;;;3.70;99.90;;;;;;2072936;28;20189;-70
2022/02/16 05:21:43;;;;;;;0.40;0.40;;;3.70;99.90;;;;;;2072536;28;20184;-70